sensor_id;sensor_type;location;lat;lon;timestamp;P1;durP1;ratioP1;P2;durP2;ratioP2
13439;SDS011;6792;57.698;11.946;2023-04-21T00:00:18;7.03;;;1.87;;
13439;SDS011;6792;57.698;11.946;2023-04-21T00:02:49;4.43;;;1.20;;
13439;SDS011;6792;57.698;11.946;2023-04-21T00:05:18;3.33;;;1.27;;
13439;SDS011;6792;57.698;11.946;2023-04-21T00:07:50;2.13;;;1.03;;
13439;SDS011;6792;57.698;11.946;2023-04-21T00:10:19;2.93;;;1.30;;
13439;SDS011;6792;57.698;11.946;2023-04-21T00:12:48;1.70;;;1.60;;
13439;SDS011;6792;57.698;11.946;2023-04-21T00:15:19;3.13;;;0.97;;
13439;SDS011;6792;57.698;11.946;2023-04-21T00:17:48;1.57;;;1.10;;
13439;SDS011;6792;57.698;11.946;2023-04-21T00:20:17;4.00;;;1.10;;
13439;SDS011;6792;57.698;11.946;2023-04-21T00:22:47;1.63;;;1.20;;
13439;SDS011;6792;57.698;11.946;2023-04-21T00:25:18;1.97;;;1.10;;
13439;SDS011;6792;57.698;11.946;2023-04-21T00:27:47;1.43;;;1.30;;
13439;SDS011;6792;57.698;11.946;2023-04-21T00:30:17;7.60;;;1.70;;
13439;SDS011;6792;57.698;11.946;2023-04-21T00:32:46;2.50;;;1.17;;
13439;SDS011;6792;57.698;11.946;2023-04-21T00:35:19;2.17;;;1.20;;
13439;SDS011;6792;57.698;11.946;2023-04-21T00:37:48;2.43;;;1.20;;
13439;SDS011;6792;57.698;11.946;2023-04-21T00:40:17;1.97;;;1.30;;
13439;SDS011;6792;57.698;11.946;2023-04-21T00:42:46;6.30;;;1.50;;
13439;SDS011;6792;57.698;11.946;2023-04-21T00:45:18;1.30;;;1.20;;
13439;SDS011;6792;57.698;11.946;2023-04-21T00:47:47;2.87;;;1.40;;
13439;SDS011;6792;57.698;11.946;2023-04-21T00:50:17;2.77;;;1.30;;
13439;SDS011;6792;57.698;11.946;2023-04-21T00:52:46;3.40;;;1.37;;
13439;SDS011;6792;57.698;11.946;2023-04-21T00:55:19;3.63;;;1.23;;
13439;SDS011;6792;57.698;11.946;2023-04-21T00:57:49;2.30;;;1.30;;
13439;SDS011;6792;57.698;11.946;2023-04-21T01:00:20;1.93;;;1.03;;
13439;SDS011;6792;57.698;11.946;2023-04-21T01:02:49;7.00;;;1.20;;
13439;SDS011;6792;57.698;11.946;2023-04-21T01:05:19;4.47;;;1.47;;
13439;SDS011;6792;57.698;11.946;2023-04-21T01:07:48;3.23;;;1.37;;
13439;SDS011;6792;57.698;11.946;2023-04-21T01:10:18;5.73;;;1.50;;
13439;SDS011;6792;57.698;11.946;2023-04-21T01:12:47;2.60;;;1.30;;
13439;SDS011;6792;57.698;11.946;2023-04-21T01:15:16;3.30;;;1.40;;
13439;SDS011;6792;57.698;11.946;2023-04-21T01:17:49;3.57;;;1.50;;
13439;SDS011;6792;57.698;11.946;2023-04-21T01:20:19;3.27;;;1.47;;
13439;SDS011;6792;57.698;11.946;2023-04-21T01:22:48;5.93;;;1.23;;
13439;SDS011;6792;57.698;11.946;2023-04-21T01:25:18;3.50;;;1.50;;
13439;SDS011;6792;57.698;11.946;2023-04-21T01:27:49;1.63;;;1.27;;
13439;SDS011;6792;57.698;11.946;2023-04-21T01:30:19;8.23;;;1.60;;
13439;SDS011;6792;57.698;11.946;2023-04-21T01:32:48;2.87;;;1.20;;
13439;SDS011;6792;57.698;11.946;2023-04-21T01:35:17;6.33;;;1.63;;
13439;SDS011;6792;57.698;11.946;2023-04-21T01:37:46;4.40;;;1.43;;
13439;SDS011;6792;57.698;11.946;2023-04-21T01:40:16;6.37;;;1.50;;
13439;SDS011;6792;57.698;11.946;2023-04-21T01:42:47;1.93;;;1.33;;
13439;SDS011;6792;57.698;11.946;2023-04-21T01:45:16;3.50;;;1.30;;
13439;SDS011;6792;57.698;11.946;2023-04-21T01:47:46;3.57;;;1.47;;
13439;SDS011;6792;57.698;11.946;2023-04-21T01:50:16;4.20;;;1.50;;
13439;SDS011;6792;57.698;11.946;2023-04-21T01:52:47;5.17;;;1.50;;
13439;SDS011;6792;57.698;11.946;2023-04-21T01:55:17;2.67;;;1.80;;
13439;SDS011;6792;57.698;11.946;2023-04-21T01:57:47;3.93;;;2.03;;
13439;SDS011;6792;57.698;11.946;2023-04-21T02:00:16;3.00;;;1.23;;
13439;SDS011;6792;57.698;11.946;2023-04-21T02:02:46;1.60;;;1.33;;
13439;SDS011;6792;57.698;11.946;2023-04-21T02:05:15;4.03;;;1.57;;
13439;SDS011;6792;57.698;11.946;2023-04-21T02:07:44;4.57;;;1.73;;
13439;SDS011;6792;57.698;11.946;2023-04-21T02:10:14;1.57;;;1.47;;
13439;SDS011;6792;57.698;11.946;2023-04-21T02:12:43;4.00;;;1.53;;
13439;SDS011;6792;57.698;11.946;2023-04-21T02:15:12;5.80;;;1.53;;
13439;SDS011;6792;57.698;11.946;2023-04-21T02:17:42;3.33;;;1.33;;
13439;SDS011;6792;57.698;11.946;2023-04-21T02:20:12;3.60;;;1.20;;
13439;SDS011;6792;57.698;11.946;2023-04-21T02:22:42;2.47;;;1.87;;
13439;SDS011;6792;57.698;11.946;2023-04-21T02:25:11;2.57;;;1.40;;
13439;SDS011;6792;57.698;11.946;2023-04-21T02:27:40;1.23;;;1.13;;
13439;SDS011;6792;57.698;11.946;2023-04-21T02:30:09;2.50;;;1.67;;
13439;SDS011;6792;57.698;11.946;2023-04-21T02:32:39;2.20;;;1.37;;
13439;SDS011;6792;57.698;11.946;2023-04-21T02:35:09;2.50;;;2.00;;
13439;SDS011;6792;57.698;11.946;2023-04-21T02:37:38;2.93;;;1.60;;
13439;SDS011;6792;57.698;11.946;2023-04-21T02:40:08;6.50;;;1.70;;
13439;SDS011;6792;57.698;11.946;2023-04-21T02:42:39;1.50;;;1.10;;
13439;SDS011;6792;57.698;11.946;2023-04-21T02:45:09;1.70;;;1.40;;
13439;SDS011;6792;57.698;11.946;2023-04-21T02:47:39;4.10;;;1.50;;
13439;SDS011;6792;57.698;11.946;2023-04-21T02:50:09;7.97;;;2.00;;
13439;SDS011;6792;57.698;11.946;2023-04-21T02:52:40;1.50;;;1.40;;
13439;SDS011;6792;57.698;11.946;2023-04-21T02:55:09;7.30;;;1.93;;
13439;SDS011;6792;57.698;11.946;2023-04-21T02:57:39;3.23;;;1.73;;
13439;SDS011;6792;57.698;11.946;2023-04-21T03:00:09;2.67;;;1.73;;
13439;SDS011;6792;57.698;11.946;2023-04-21T03:02:39;1.60;;;1.30;;
13439;SDS011;6792;57.698;11.946;2023-04-21T03:05:09;2.63;;;1.60;;
13439;SDS011;6792;57.698;11.946;2023-04-21T03:07:39;2.30;;;1.50;;
13439;SDS011;6792;57.698;11.946;2023-04-21T03:10:08;1.70;;;1.60;;
13439;SDS011;6792;57.698;11.946;2023-04-21T03:12:37;2.93;;;1.40;;
13439;SDS011;6792;57.698;11.946;2023-04-21T03:15:07;2.77;;;2.03;;
13439;SDS011;6792;57.698;11.946;2023-04-21T03:17:38;5.10;;;1.60;;
13439;SDS011;6792;57.698;11.946;2023-04-21T03:20:07;2.73;;;1.63;;
13439;SDS011;6792;57.698;11.946;2023-04-21T03:22:38;5.13;;;1.67;;
13439;SDS011;6792;57.698;11.946;2023-04-21T03:25:07;4.50;;;2.20;;
13439;SDS011;6792;57.698;11.946;2023-04-21T03:27:37;1.70;;;1.57;;
13439;SDS011;6792;57.698;11.946;2023-04-21T03:30:07;4.47;;;1.63;;
13439;SDS011;6792;57.698;11.946;2023-04-21T03:32:38;3.20;;;1.60;;
13439;SDS011;6792;57.698;11.946;2023-04-21T03:35:07;8.50;;;2.33;;
13439;SDS011;6792;57.698;11.946;2023-04-21T03:37:36;1.70;;;1.47;;
13439;SDS011;6792;57.698;11.946;2023-04-21T03:40:07;7.87;;;2.23;;
13439;SDS011;6792;57.698;11.946;2023-04-21T03:42:37;4.47;;;2.27;;
13439;SDS011;6792;57.698;11.946;2023-04-21T03:45:07;3.23;;;1.50;;
13439;SDS011;6792;57.698;11.946;2023-04-21T03:47:37;3.50;;;1.80;;
13439;SDS011;6792;57.698;11.946;2023-04-21T03:50:07;2.20;;;1.70;;
13439;SDS011;6792;57.698;11.946;2023-04-21T03:52:36;4.67;;;1.70;;
13439;SDS011;6792;57.698;11.946;2023-04-21T03:55:06;3.80;;;2.10;;
13439;SDS011;6792;57.698;11.946;2023-04-21T04:00:09;5.33;;;2.17;;
13439;SDS011;6792;57.698;11.946;2023-04-21T04:02:39;5.40;;;2.47;;
13439;SDS011;6792;57.698;11.946;2023-04-21T04:05:10;8.43;;;2.80;;
13439;SDS011;6792;57.698;11.946;2023-04-21T04:07:39;10.90;;;2.90;;
13439;SDS011;6792;57.698;11.946;2023-04-21T04:10:08;6.90;;;2.60;;
13439;SDS011;6792;57.698;11.946;2023-04-21T04:12:37;9.63;;;2.93;;
13439;SDS011;6792;57.698;11.946;2023-04-21T04:15:07;8.93;;;2.83;;
13439;SDS011;6792;57.698;11.946;2023-04-21T04:17:36;6.90;;;3.00;;
13439;SDS011;6792;57.698;11.946;2023-04-21T04:20:06;9.37;;;3.73;;
13439;SDS011;6792;57.698;11.946;2023-04-21T04:22:36;16.13;;;3.60;;
13439;SDS011;6792;57.698;11.946;2023-04-21T04:25:05;9.90;;;3.60;;
13439;SDS011;6792;57.698;11.946;2023-04-21T04:27:35;11.97;;;3.30;;
13439;SDS011;6792;57.698;11.946;2023-04-21T04:30:06;13.80;;;3.30;;
13439;SDS011;6792;57.698;11.946;2023-04-21T04:32:35;10.67;;;3.03;;
13439;SDS011;6792;57.698;11.946;2023-04-21T04:35:06;12.33;;;2.67;;
13439;SDS011;6792;57.698;11.946;2023-04-21T04:37:36;10.93;;;2.47;;
13439;SDS011;6792;57.698;11.946;2023-04-21T04:40:07;11.57;;;2.60;;
13439;SDS011;6792;57.698;11.946;2023-04-21T04:42:37;6.00;;;2.43;;
13439;SDS011;6792;57.698;11.946;2023-04-21T04:45:07;7.30;;;2.47;;
13439;SDS011;6792;57.698;11.946;2023-04-21T04:47:36;13.73;;;2.87;;
13439;SDS011;6792;57.698;11.946;2023-04-21T04:50:06;7.83;;;2.53;;
13439;SDS011;6792;57.698;11.946;2023-04-21T04:52:36;5.33;;;2.60;;
13439;SDS011;6792;57.698;11.946;2023-04-21T04:55:06;21.03;;;3.13;;
13439;SDS011;6792;57.698;11.946;2023-04-21T04:57:36;5.40;;;2.53;;
13439;SDS011;6792;57.698;11.946;2023-04-21T05:00:08;15.77;;;2.80;;
13439;SDS011;6792;57.698;11.946;2023-04-21T05:02:39;9.33;;;3.00;;
13439;SDS011;6792;57.698;11.946;2023-04-21T05:05:08;13.10;;;2.93;;
13439;SDS011;6792;57.698;11.946;2023-04-21T05:07:37;9.60;;;3.03;;
13439;SDS011;6792;57.698;11.946;2023-04-21T05:10:07;11.17;;;2.57;;
13439;SDS011;6792;57.698;11.946;2023-04-21T05:12:36;17.07;;;3.00;;
13439;SDS011;6792;57.698;11.946;2023-04-21T05:15:06;10.67;;;2.77;;
13439;SDS011;6792;57.698;11.946;2023-04-21T05:17:37;7.57;;;2.50;;
13439;SDS011;6792;57.698;11.946;2023-04-21T05:20:07;16.10;;;3.30;;
13439;SDS011;6792;57.698;11.946;2023-04-21T05:22:37;13.63;;;2.83;;
13439;SDS011;6792;57.698;11.946;2023-04-21T05:25:08;10.63;;;2.40;;
13439;SDS011;6792;57.698;11.946;2023-04-21T05:27:40;16.97;;;2.63;;
13439;SDS011;6792;57.698;11.946;2023-04-21T05:30:10;10.23;;;3.07;;
13439;SDS011;6792;57.698;11.946;2023-04-21T05:32:39;8.93;;;2.87;;
13439;SDS011;6792;57.698;11.946;2023-04-21T05:35:08;12.67;;;3.43;;
13439;SDS011;6792;57.698;11.946;2023-04-21T05:37:37;14.83;;;3.23;;
13439;SDS011;6792;57.698;11.946;2023-04-21T05:40:07;12.40;;;2.77;;
13439;SDS011;6792;57.698;11.946;2023-04-21T05:42:37;10.60;;;3.23;;
13439;SDS011;6792;57.698;11.946;2023-04-21T05:45:07;9.80;;;3.10;;
13439;SDS011;6792;57.698;11.946;2023-04-21T05:47:37;10.20;;;2.97;;
13439;SDS011;6792;57.698;11.946;2023-04-21T05:50:06;10.53;;;2.87;;
13439;SDS011;6792;57.698;11.946;2023-04-21T05:52:36;9.87;;;2.70;;
13439;SDS011;6792;57.698;11.946;2023-04-21T05:55:06;10.40;;;3.37;;
13439;SDS011;6792;57.698;11.946;2023-04-21T05:57:36;15.57;;;2.93;;
13439;SDS011;6792;57.698;11.946;2023-04-21T06:00:06;4.87;;;2.50;;
13439;SDS011;6792;57.698;11.946;2023-04-21T06:02:37;10.73;;;3.23;;
13439;SDS011;6792;57.698;11.946;2023-04-21T06:05:06;8.87;;;2.30;;
13439;SDS011;6792;57.698;11.946;2023-04-21T06:07:36;17.30;;;3.33;;
13439;SDS011;6792;57.698;11.946;2023-04-21T06:10:06;8.80;;;2.70;;
13439;SDS011;6792;57.698;11.946;2023-04-21T06:12:37;17.17;;;3.37;;
13439;SDS011;6792;57.698;11.946;2023-04-21T06:15:07;20.33;;;3.60;;
13439;SDS011;6792;57.698;11.946;2023-04-21T06:17:37;17.10;;;3.80;;
13439;SDS011;6792;57.698;11.946;2023-04-21T06:20:08;10.43;;;3.13;;
13439;SDS011;6792;57.698;11.946;2023-04-21T06:22:38;10.63;;;3.60;;
13439;SDS011;6792;57.698;11.946;2023-04-21T06:25:08;13.43;;;3.40;;
13439;SDS011;6792;57.698;11.946;2023-04-21T06:27:40;10.60;;;3.97;;
13439;SDS011;6792;57.698;11.946;2023-04-21T06:30:11;8.97;;;3.90;;
13439;SDS011;6792;57.698;11.946;2023-04-21T06:32:41;10.27;;;3.40;;
13439;SDS011;6792;57.698;11.946;2023-04-21T06:35:11;10.27;;;4.10;;
13439;SDS011;6792;57.698;11.946;2023-04-21T06:37:40;9.73;;;2.87;;
13439;SDS011;6792;57.698;11.946;2023-04-21T06:40:10;13.40;;;3.50;;
13439;SDS011;6792;57.698;11.946;2023-04-21T06:42:41;11.63;;;3.20;;
13439;SDS011;6792;57.698;11.946;2023-04-21T06:45:10;8.70;;;3.40;;
13439;SDS011;6792;57.698;11.946;2023-04-21T06:47:40;13.57;;;3.50;;
13439;SDS011;6792;57.698;11.946;2023-04-21T06:50:09;12.37;;;3.47;;
13439;SDS011;6792;57.698;11.946;2023-04-21T06:52:38;22.87;;;3.50;;
13439;SDS011;6792;57.698;11.946;2023-04-21T06:55:08;11.93;;;3.90;;
13439;SDS011;6792;57.698;11.946;2023-04-21T06:57:38;10.60;;;3.20;;
13439;SDS011;6792;57.698;11.946;2023-04-21T07:00:09;10.77;;;3.53;;
13439;SDS011;6792;57.698;11.946;2023-04-21T07:02:40;13.63;;;3.70;;
13439;SDS011;6792;57.698;11.946;2023-04-21T07:05:10;12.43;;;3.40;;
13439;SDS011;6792;57.698;11.946;2023-04-21T07:07:39;9.63;;;3.63;;
13439;SDS011;6792;57.698;11.946;2023-04-21T07:10:09;13.13;;;3.53;;
13439;SDS011;6792;57.698;11.946;2023-04-21T07:12:38;11.80;;;3.50;;
13439;SDS011;6792;57.698;11.946;2023-04-21T07:15:09;9.73;;;3.00;;
13439;SDS011;6792;57.698;11.946;2023-04-21T07:17:38;7.10;;;3.37;;
13439;SDS011;6792;57.698;11.946;2023-04-21T07:20:08;18.77;;;3.20;;
13439;SDS011;6792;57.698;11.946;2023-04-21T07:22:38;13.90;;;3.57;;
13439;SDS011;6792;57.698;11.946;2023-04-21T07:25:08;13.07;;;3.17;;
13439;SDS011;6792;57.698;11.946;2023-04-21T07:27:38;10.57;;;3.27;;
13439;SDS011;6792;57.698;11.946;2023-04-21T07:30:08;14.50;;;3.30;;
13439;SDS011;6792;57.698;11.946;2023-04-21T07:32:38;8.07;;;3.10;;
13439;SDS011;6792;57.698;11.946;2023-04-21T07:35:08;15.70;;;3.03;;
13439;SDS011;6792;57.698;11.946;2023-04-21T07:37:37;13.93;;;3.63;;
13439;SDS011;6792;57.698;11.946;2023-04-21T07:40:07;21.57;;;3.87;;
13439;SDS011;6792;57.698;11.946;2023-04-21T07:42:38;12.57;;;3.40;;
13439;SDS011;6792;57.698;11.946;2023-04-21T07:45:08;8.90;;;3.03;;
13439;SDS011;6792;57.698;11.946;2023-04-21T07:47:38;13.40;;;3.07;;
13439;SDS011;6792;57.698;11.946;2023-04-21T07:50:08;9.80;;;3.00;;
13439;SDS011;6792;57.698;11.946;2023-04-21T07:52:38;13.30;;;3.27;;
13439;SDS011;6792;57.698;11.946;2023-04-21T07:55:07;6.97;;;3.10;;
13439;SDS011;6792;57.698;11.946;2023-04-21T07:57:37;14.17;;;3.50;;
13439;SDS011;6792;57.698;11.946;2023-04-21T08:00:07;5.55;;;2.90;;
13439;SDS011;6792;57.698;11.946;2023-04-21T08:02:37;16.50;;;3.30;;
13439;SDS011;6792;57.698;11.946;2023-04-21T08:05:07;8.00;;;3.05;;
13439;SDS011;6792;57.698;11.946;2023-04-21T08:07:36;9.00;;;2.90;;
13439;SDS011;6792;57.698;11.946;2023-04-21T08:10:07;6.72;;;2.70;;
13439;SDS011;6792;57.698;11.946;2023-04-21T08:12:37;8.10;;;2.90;;
13439;SDS011;6792;57.698;11.946;2023-04-21T08:15:07;5.83;;;2.60;;
13439;SDS011;6792;57.698;11.946;2023-04-21T08:17:37;3.07;;;2.77;;
13439;SDS011;6792;57.698;11.946;2023-04-21T08:20:08;6.63;;;2.70;;
13439;SDS011;6792;57.698;11.946;2023-04-21T08:22:38;7.72;;;2.55;;
13439;SDS011;6792;57.698;11.946;2023-04-21T08:25:08;4.70;;;2.40;;
13439;SDS011;6792;57.698;11.946;2023-04-21T08:27:37;3.20;;;2.43;;
13439;SDS011;6792;57.698;11.946;2023-04-21T08:30:08;2.50;;;2.20;;
13439;SDS011;6792;57.698;11.946;2023-04-21T08:32:38;6.13;;;2.70;;
13439;SDS011;6792;57.698;11.946;2023-04-21T08:35:08;7.60;;;2.55;;
13439;SDS011;6792;57.698;11.946;2023-04-21T08:37:37;3.87;;;2.27;;
13439;SDS011;6792;57.698;11.946;2023-04-21T08:40:08;12.07;;;2.93;;
13439;SDS011;6792;57.698;11.946;2023-04-21T08:42:37;4.33;;;2.50;;
13439;SDS011;6792;57.698;11.946;2023-04-21T08:45:08;3.83;;;2.53;;
13439;SDS011;6792;57.698;11.946;2023-04-21T08:47:39;3.65;;;2.35;;
13439;SDS011;6792;57.698;11.946;2023-04-21T08:50:11;5.90;;;2.33;;
13439;SDS011;6792;57.698;11.946;2023-04-21T08:52:40;9.15;;;2.30;;
13439;SDS011;6792;57.698;11.946;2023-04-21T08:55:10;2.35;;;2.17;;
13439;SDS011;6792;57.698;11.946;2023-04-21T08:57:40;2.70;;;2.17;;
13439;SDS011;6792;57.698;11.946;2023-04-21T09:00:12;3.67;;;2.15;;
13439;SDS011;6792;57.698;11.946;2023-04-21T09:02:55;3.33;;;2.33;;
13439;SDS011;6792;57.698;11.946;2023-04-21T09:05:25;7.42;;;2.27;;
13439;SDS011;6792;57.698;11.946;2023-04-21T09:08:06;10.43;;;2.50;;
13439;SDS011;6792;57.698;11.946;2023-04-21T09:10:47;6.65;;;2.58;;
13439;SDS011;6792;57.698;11.946;2023-04-21T09:13:18;11.22;;;2.42;;
13439;SDS011;6792;57.698;11.946;2023-04-21T09:15:49;7.28;;;2.37;;
13439;SDS011;6792;57.698;11.946;2023-04-21T09:18:19;7.72;;;2.37;;
13439;SDS011;6792;57.698;11.946;2023-04-21T09:20:50;6.00;;;2.85;;
13439;SDS011;6792;57.698;11.946;2023-04-21T09:23:21;3.92;;;2.30;;
13439;SDS011;6792;57.698;11.946;2023-04-21T09:25:50;8.25;;;2.45;;
13439;SDS011;6792;57.698;11.946;2023-04-21T09:28:21;3.90;;;2.27;;
13439;SDS011;6792;57.698;11.946;2023-04-21T09:30:54;5.78;;;2.30;;
13439;SDS011;6792;57.698;11.946;2023-04-21T09:33:24;4.90;;;2.27;;
13439;SDS011;6792;57.698;11.946;2023-04-21T09:35:53;3.42;;;2.70;;
13439;SDS011;6792;57.698;11.946;2023-04-21T09:38:22;2.67;;;2.47;;
13439;SDS011;6792;57.698;11.946;2023-04-21T09:40:56;4.80;;;2.35;;
13439;SDS011;6792;57.698;11.946;2023-04-21T09:43:25;2.90;;;2.42;;
13439;SDS011;6792;57.698;11.946;2023-04-21T09:45:54;3.40;;;2.70;;
13439;SDS011;6792;57.698;11.946;2023-04-21T09:48:25;4.65;;;3.33;;
13439;SDS011;6792;57.698;11.946;2023-04-21T09:50:56;6.97;;;2.50;;
13439;SDS011;6792;57.698;11.946;2023-04-21T09:53:26;8.70;;;2.60;;
13439;SDS011;6792;57.698;11.946;2023-04-21T09:55:58;4.53;;;2.72;;
13439;SDS011;6792;57.698;11.946;2023-04-21T09:58:28;2.92;;;2.65;;
13439;SDS011;6792;57.698;11.946;2023-04-21T10:01:00;4.80;;;2.85;;
13439;SDS011;6792;57.698;11.946;2023-04-21T10:03:30;6.35;;;2.95;;
13439;SDS011;6792;57.698;11.946;2023-04-21T10:06:00;8.43;;;2.67;;
13439;SDS011;6792;57.698;11.946;2023-04-21T10:08:29;6.37;;;3.00;;
13439;SDS011;6792;57.698;11.946;2023-04-21T10:10:59;4.95;;;2.58;;
13439;SDS011;6792;57.698;11.946;2023-04-21T10:13:29;9.85;;;2.67;;
13439;SDS011;6792;57.698;11.946;2023-04-21T10:16:02;3.92;;;2.70;;
13439;SDS011;6792;57.698;11.946;2023-04-21T10:18:34;3.85;;;3.10;;
13439;SDS011;6792;57.698;11.946;2023-04-21T10:21:05;4.42;;;2.70;;
13439;SDS011;6792;57.698;11.946;2023-04-21T10:23:36;4.80;;;2.77;;
13439;SDS011;6792;57.698;11.946;2023-04-21T10:26:11;4.78;;;2.85;;
13439;SDS011;6792;57.698;11.946;2023-04-21T10:28:42;4.10;;;2.75;;
13439;SDS011;6792;57.698;11.946;2023-04-21T10:31:20;3.22;;;2.40;;
13439;SDS011;6792;57.698;11.946;2023-04-21T10:36:47;5.10;;;3.05;;
13439;SDS011;6792;57.698;11.946;2023-04-21T10:39:25;3.22;;;2.77;;
13439;SDS011;6792;57.698;11.946;2023-04-21T10:41:56;4.65;;;2.47;;
13439;SDS011;6792;57.698;11.946;2023-04-21T10:44:28;6.28;;;3.00;;
13439;SDS011;6792;57.698;11.946;2023-04-21T10:46:57;8.00;;;2.67;;
13439;SDS011;6792;57.698;11.946;2023-04-21T10:49:27;4.00;;;2.85;;
13439;SDS011;6792;57.698;11.946;2023-04-21T10:52:03;5.80;;;2.83;;
13439;SDS011;6792;57.698;11.946;2023-04-21T10:54:40;6.15;;;2.40;;
13439;SDS011;6792;57.698;11.946;2023-04-21T10:57:11;4.30;;;2.70;;
13439;SDS011;6792;57.698;11.946;2023-04-21T10:59:42;7.28;;;2.52;;
13439;SDS011;6792;57.698;11.946;2023-04-21T11:02:12;5.80;;;3.00;;
13439;SDS011;6792;57.698;11.946;2023-04-21T11:04:43;4.70;;;2.80;;
13439;SDS011;6792;57.698;11.946;2023-04-21T11:07:14;8.45;;;3.10;;
13439;SDS011;6792;57.698;11.946;2023-04-21T11:09:49;3.30;;;2.62;;
13439;SDS011;6792;57.698;11.946;2023-04-21T11:12:26;5.62;;;2.70;;
13439;SDS011;6792;57.698;11.946;2023-04-21T11:14:57;7.42;;;2.80;;
13439;SDS011;6792;57.698;11.946;2023-04-21T11:17:28;6.78;;;2.50;;
13439;SDS011;6792;57.698;11.946;2023-04-21T11:19:58;5.37;;;2.70;;
13439;SDS011;6792;57.698;11.946;2023-04-21T11:22:29;4.67;;;2.95;;
13439;SDS011;6792;57.698;11.946;2023-04-21T11:24:58;4.90;;;2.30;;
13439;SDS011;6792;57.698;11.946;2023-04-21T11:27:28;6.78;;;2.80;;
13439;SDS011;6792;57.698;11.946;2023-04-21T11:29:58;3.87;;;2.65;;
13439;SDS011;6792;57.698;11.946;2023-04-21T11:32:31;9.73;;;3.15;;
13439;SDS011;6792;57.698;11.946;2023-04-21T11:35:00;6.72;;;2.85;;
13439;SDS011;6792;57.698;11.946;2023-04-21T11:37:29;10.82;;;3.20;;
13439;SDS011;6792;57.698;11.946;2023-04-21T11:39:59;6.12;;;2.87;;
13439;SDS011;6792;57.698;11.946;2023-04-21T11:42:30;6.03;;;2.95;;
13439;SDS011;6792;57.698;11.946;2023-04-21T11:44:59;7.70;;;2.75;;
13439;SDS011;6792;57.698;11.946;2023-04-21T11:47:29;5.12;;;2.77;;
13439;SDS011;6792;57.698;11.946;2023-04-21T11:49:59;4.62;;;2.95;;
13439;SDS011;6792;57.698;11.946;2023-04-21T11:52:29;5.45;;;3.00;;
13439;SDS011;6792;57.698;11.946;2023-04-21T11:55:01;4.00;;;3.15;;
13439;SDS011;6792;57.698;11.946;2023-04-21T11:57:32;5.40;;;3.25;;
13439;SDS011;6792;57.698;11.946;2023-04-21T12:00:02;3.33;;;2.50;;
13439;SDS011;6792;57.698;11.946;2023-04-21T12:02:38;5.33;;;3.20;;
13439;SDS011;6792;57.698;11.946;2023-04-21T12:05:08;9.68;;;3.37;;
13439;SDS011;6792;57.698;11.946;2023-04-21T12:07:40;5.87;;;2.90;;
13439;SDS011;6792;57.698;11.946;2023-04-21T12:10:12;10.98;;;2.62;;
13439;SDS011;6792;57.698;11.946;2023-04-21T12:12:43;2.92;;;2.65;;
13439;SDS011;6792;57.698;11.946;2023-04-21T12:15:16;3.12;;;2.45;;
13439;SDS011;6792;57.698;11.946;2023-04-21T12:17:45;4.87;;;2.60;;
13439;SDS011;6792;57.698;11.946;2023-04-21T12:20:16;7.58;;;2.67;;
13439;SDS011;6792;57.698;11.946;2023-04-21T12:22:46;3.02;;;2.72;;
13439;SDS011;6792;57.698;11.946;2023-04-21T12:25:16;3.85;;;2.80;;
13439;SDS011;6792;57.698;11.946;2023-04-21T12:27:48;7.60;;;2.60;;
13439;SDS011;6792;57.698;11.946;2023-04-21T12:30:18;5.67;;;2.75;;
13439;SDS011;6792;57.698;11.946;2023-04-21T12:32:48;2.85;;;1.95;;
13439;SDS011;6792;57.698;11.946;2023-04-21T12:35:17;5.58;;;2.35;;
13439;SDS011;6792;57.698;11.946;2023-04-21T12:37:46;2.50;;;2.20;;
13439;SDS011;6792;57.698;11.946;2023-04-21T12:40:15;4.50;;;2.40;;
13439;SDS011;6792;57.698;11.946;2023-04-21T12:42:45;3.17;;;2.00;;
13439;SDS011;6792;57.698;11.946;2023-04-21T12:45:14;3.65;;;2.50;;
13439;SDS011;6792;57.698;11.946;2023-04-21T12:47:44;6.22;;;3.02;;
13439;SDS011;6792;57.698;11.946;2023-04-21T12:50:17;2.33;;;2.12;;
13439;SDS011;6792;57.698;11.946;2023-04-21T12:52:46;4.90;;;2.05;;
13439;SDS011;6792;57.698;11.946;2023-04-21T12:55:17;4.95;;;2.50;;
13439;SDS011;6792;57.698;11.946;2023-04-21T12:57:46;2.60;;;2.40;;
13439;SDS011;6792;57.698;11.946;2023-04-21T13:03:04;7.17;;;2.40;;
13439;SDS011;6792;57.698;11.946;2023-04-21T13:05:33;3.27;;;2.10;;
13439;SDS011;6792;57.698;11.946;2023-04-21T13:08:02;5.80;;;2.37;;
13439;SDS011;6792;57.698;11.946;2023-04-21T13:10:31;3.87;;;2.40;;
13439;SDS011;6792;57.698;11.946;2023-04-21T13:13:01;2.70;;;2.50;;
13439;SDS011;6792;57.698;11.946;2023-04-21T13:15:30;4.00;;;2.22;;
13439;SDS011;6792;57.698;11.946;2023-04-21T13:17:59;2.40;;;2.20;;
13439;SDS011;6792;57.698;11.946;2023-04-21T13:20:29;3.05;;;2.62;;
13439;SDS011;6792;57.698;11.946;2023-04-21T13:22:58;4.00;;;2.15;;
13439;SDS011;6792;57.698;11.946;2023-04-21T13:25:30;4.35;;;2.47;;
13439;SDS011;6792;57.698;11.946;2023-04-21T13:28:00;4.33;;;2.60;;
13439;SDS011;6792;57.698;11.946;2023-04-21T13:30:29;4.08;;;2.47;;
13439;SDS011;6792;57.698;11.946;2023-04-21T13:32:58;3.40;;;1.95;;
13439;SDS011;6792;57.698;11.946;2023-04-21T13:35:27;3.67;;;2.27;;
13439;SDS011;6792;57.698;11.946;2023-04-21T13:37:56;3.08;;;2.25;;
13439;SDS011;6792;57.698;11.946;2023-04-21T13:40:26;6.15;;;2.70;;
13439;SDS011;6792;57.698;11.946;2023-04-21T13:42:55;6.70;;;2.20;;
13439;SDS011;6792;57.698;11.946;2023-04-21T13:45:25;5.35;;;2.27;;
13439;SDS011;6792;57.698;11.946;2023-04-21T13:47:54;7.67;;;2.37;;
13439;SDS011;6792;57.698;11.946;2023-04-21T13:50:23;3.33;;;2.33;;
13439;SDS011;6792;57.698;11.946;2023-04-21T13:52:53;3.92;;;2.25;;
13439;SDS011;6792;57.698;11.946;2023-04-21T13:55:22;2.27;;;2.08;;
13439;SDS011;6792;57.698;11.946;2023-04-21T13:57:51;5.45;;;2.17;;
13439;SDS011;6792;57.698;11.946;2023-04-21T14:00:20;2.65;;;2.42;;
13439;SDS011;6792;57.698;11.946;2023-04-21T14:02:50;3.00;;;2.27;;
13439;SDS011;6792;57.698;11.946;2023-04-21T14:05:19;2.92;;;2.25;;
13439;SDS011;6792;57.698;11.946;2023-04-21T14:07:48;2.87;;;2.08;;
13439;SDS011;6792;57.698;11.946;2023-04-21T14:10:18;4.92;;;2.02;;
13439;SDS011;6792;57.698;11.946;2023-04-21T14:12:47;5.40;;;1.87;;
13439;SDS011;6792;57.698;11.946;2023-04-21T14:15:18;5.25;;;2.05;;
13439;SDS011;6792;57.698;11.946;2023-04-21T14:17:47;5.10;;;2.10;;
13439;SDS011;6792;57.698;11.946;2023-04-21T14:20:16;2.27;;;2.00;;
13439;SDS011;6792;57.698;11.946;2023-04-21T14:22:46;3.80;;;2.40;;
13439;SDS011;6792;57.698;11.946;2023-04-21T14:25:15;1.98;;;1.87;;
13439;SDS011;6792;57.698;11.946;2023-04-21T14:27:44;1.70;;;1.57;;
13439;SDS011;6792;57.698;11.946;2023-04-21T14:30:14;2.95;;;1.70;;
13439;SDS011;6792;57.698;11.946;2023-04-21T14:32:43;2.20;;;1.82;;
13439;SDS011;6792;57.698;11.946;2023-04-21T14:35:13;4.40;;;2.17;;
13439;SDS011;6792;57.698;11.946;2023-04-21T14:37:46;2.77;;;1.72;;
13439;SDS011;6792;57.698;11.946;2023-04-21T14:40:19;3.08;;;1.90;;
13439;SDS011;6792;57.698;11.946;2023-04-21T14:42:48;2.75;;;1.95;;
13439;SDS011;6792;57.698;11.946;2023-04-21T14:45:17;3.10;;;1.80;;
13439;SDS011;6792;57.698;11.946;2023-04-21T14:47:47;3.35;;;1.95;;
13439;SDS011;6792;57.698;11.946;2023-04-21T14:50:17;1.98;;;1.77;;
13439;SDS011;6792;57.698;11.946;2023-04-21T14:52:46;3.58;;;1.87;;
13439;SDS011;6792;57.698;11.946;2023-04-21T14:55:15;2.08;;;1.80;;
13439;SDS011;6792;57.698;11.946;2023-04-21T14:57:47;2.30;;;1.80;;
13439;SDS011;6792;57.698;11.946;2023-04-21T15:00:19;3.72;;;2.12;;
13439;SDS011;6792;57.698;11.946;2023-04-21T15:02:49;5.92;;;1.82;;
13439;SDS011;6792;57.698;11.946;2023-04-21T15:05:18;3.83;;;2.08;;
13439;SDS011;6792;57.698;11.946;2023-04-21T15:07:47;2.98;;;2.08;;
13439;SDS011;6792;57.698;11.946;2023-04-21T15:10:16;1.90;;;1.80;;